sensor_id;sensor_type;location;lat;lon;timestamp;pressure;altitude;pressure_sealevel;temperature;humidity
4123;BME280;2075;51.062;6.920;2023-09-07T00:00:17;-5107.41;;;-144.48;100.00
4123;BME280;2075;51.062;6.920;2023-09-07T00:03:03;-6117.19;;;-144.48;100.00
4123;BME280;2075;51.062;6.920;2023-09-07T00:05:49;-6621.97;;;-144.48;100.00
4123;BME280;2075;51.062;6.920;2023-09-07T00:08:38;-7631.31;;;-144.48;100.00
4123;BME280;2075;51.062;6.920;2023-09-07T00:11:23;-8388.09;;;-144.48;100.00
4123;BME280;2075;51.062;6.920;2023-09-07T00:14:11;-9144.72;;;-144.48;100.00
4123;BME280;2075;51.062;6.920;2023-09-07T00:16:57;-9649.03;;;-144.48;100.00
4123;BME280;2075;51.062;6.920;2023-09-07T00:19:43;-10405.38;;;-144.48;100.00
4123;BME280;2075;51.062;6.920;2023-09-07T00:22:31;-10657.44;;;-144.48;100.00
4123;BME280;2075;51.062;6.920;2023-09-07T00:25:18;-10657.44;;;-144.48;100.00
4123;BME280;2075;51.062;6.920;2023-09-07T00:28:05;-10153.28;;;-144.48;100.00
4123;BME280;2075;51.062;6.920;2023-09-07T00:30:50;-8892.53;;;-144.48;100.00
4123;BME280;2075;51.062;6.920;2023-09-07T00:33:36;-8892.53;;;-144.48;100.00
4123;BME280;2075;51.062;6.920;2023-09-07T00:36:21;-9649.03;;;-144.48;100.00
4123;BME280;2075;51.062;6.920;2023-09-07T00:39:07;-10909.50;;;-144.48;100.00
4123;BME280;2075;51.062;6.920;2023-09-07T00:41:55;-11665.53;;;-144.48;100.00
4123;BME280;2075;51.062;6.920;2023-09-07T00:44:40;-11667.00;;;-144.48;100.00
4123;BME280;2075;51.062;6.920;2023-09-07T00:47:26;-11667.00;;;-144.48;100.00
4123;BME280;2075;51.062;6.920;2023-09-07T00:50:13;-11667.00;;;-144.48;100.00
4123;BME280;2075;51.062;6.920;2023-09-07T00:53:00;-11667.00;;;-144.48;100.00
4123;BME280;2075;51.062;6.920;2023-09-07T00:55:48;-11667.00;;;-144.48;100.00
4123;BME280;2075;51.062;6.920;2023-09-07T00:58:35;-11667.00;;;-144.48;100.00
4123;BME280;2075;51.062;6.920;2023-09-07T01:01:22;-11667.00;;;-144.48;100.00
4123;BME280;2075;51.062;6.920;2023-09-07T01:04:08;-11667.00;;;-144.48;100.00
4123;BME280;2075;51.062;6.920;2023-09-07T01:06:56;-11667.00;;;-144.48;100.00
4123;BME280;2075;51.062;6.920;2023-09-07T01:09:47;-11667.00;;;-144.48;100.00
4123;BME280;2075;51.062;6.920;2023-09-07T01:12:34;-11667.00;;;-144.48;100.00
4123;BME280;2075;51.062;6.920;2023-09-07T01:15:21;-11667.00;;;-144.48;100.00
4123;BME280;2075;51.062;6.920;2023-09-07T01:18:07;-11667.00;;;-144.48;100.00
4123;BME280;2075;51.062;6.920;2023-09-07T01:20:54;-11667.00;;;-144.48;100.00
4123;BME280;2075;51.062;6.920;2023-09-07T01:23:43;-11667.00;;;-144.48;100.00
4123;BME280;2075;51.062;6.920;2023-09-07T01:26:30;-11667.00;;;-144.48;100.00
4123;BME280;2075;51.062;6.920;2023-09-07T01:29:16;-11667.00;;;-144.48;100.00
4123;BME280;2075;51.062;6.920;2023-09-07T01:32:02;-11667.00;;;-144.48;100.00
4123;BME280;2075;51.062;6.920;2023-09-07T01:34:48;-11667.00;;;-144.48;100.00
4123;BME280;2075;51.062;6.920;2023-09-07T01:37:33;-11667.00;;;-144.48;100.00
4123;BME280;2075;51.062;6.920;2023-09-07T01:40:22;-11667.00;;;-144.48;100.00
4123;BME280;2075;51.062;6.920;2023-09-07T01:43:08;-11667.00;;;-144.48;100.00
4123;BME280;2075;51.062;6.920;2023-09-07T01:45:53;-11667.00;;;-144.48;100.00
4123;BME280;2075;51.062;6.920;2023-09-07T01:48:39;-11667.00;;;-144.48;100.00
4123;BME280;2075;51.062;6.920;2023-09-07T01:51:28;-11667.00;;;-144.48;100.00
4123;BME280;2075;51.062;6.920;2023-09-07T01:54:13;-11667.00;;;-144.48;100.00
4123;BME280;2075;51.062;6.920;2023-09-07T01:57:00;-11667.00;;;-144.48;100.00
4123;BME280;2075;51.062;6.920;2023-09-07T01:59:47;-11667.00;;;-144.48;100.00
4123;BME280;2075;51.062;6.920;2023-09-07T02:02:33;-11667.00;;;-144.48;100.00
4123;BME280;2075;51.062;6.920;2023-09-07T02:05:19;-11667.00;;;-144.48;100.00
4123;BME280;2075;51.062;6.920;2023-09-07T02:08:05;-11667.00;;;-144.48;100.00
4123;BME280;2075;51.062;6.920;2023-09-07T02:10:51;-11667.00;;;-144.48;100.00
4123;BME280;2075;51.062;6.920;2023-09-07T02:13:41;-11667.00;;;-144.48;100.00
4123;BME280;2075;51.062;6.920;2023-09-07T02:16:26;-11667.00;;;-144.48;100.00
4123;BME280;2075;51.062;6.920;2023-09-07T02:19:12;-11667.00;;;-144.48;100.00
4123;BME280;2075;51.062;6.920;2023-09-07T02:21:59;-11667.00;;;-144.48;100.00
4123;BME280;2075;51.062;6.920;2023-09-07T02:24:44;-11667.00;;;-144.48;100.00
4123;BME280;2075;51.062;6.920;2023-09-07T02:27:29;-11667.00;;;-144.48;100.00
4123;BME280;2075;51.062;6.920;2023-09-07T02:30:18;-11667.00;;;-144.48;100.00
4123;BME280;2075;51.062;6.920;2023-09-07T02:33:04;-11667.00;;;-144.48;100.00
4123;BME280;2075;51.062;6.920;2023-09-07T02:35:50;-11667.00;;;-144.48;100.00
4123;BME280;2075;51.062;6.920;2023-09-07T02:38:35;-11667.00;;;-144.48;100.00
4123;BME280;2075;51.062;6.920;2023-09-07T02:41:21;-11667.00;;;-144.48;100.00
4123;BME280;2075;51.062;6.920;2023-09-07T02:44:06;-11667.00;;;-144.48;100.00
4123;BME280;2075;51.062;6.920;2023-09-07T02:46:53;-11667.00;;;-144.48;100.00
4123;BME280;2075;51.062;6.920;2023-09-07T02:49:38;-11667.00;;;-144.48;100.00
4123;BME280;2075;51.062;6.920;2023-09-07T02:52:26;-11667.00;;;-144.48;100.00
4123;BME280;2075;51.062;6.920;2023-09-07T02:55:11;-11667.00;;;-144.48;100.00
4123;BME280;2075;51.062;6.920;2023-09-07T02:57:57;-11667.00;;;-144.48;100.00
4123;BME280;2075;51.062;6.920;2023-09-07T03:00:45;-11667.00;;;-144.48;100.00
4123;BME280;2075;51.062;6.920;2023-09-07T03:03:34;-11667.00;;;-144.48;100.00
4123;BME280;2075;51.062;6.920;2023-09-07T03:06:20;-11667.00;;;-144.48;100.00
4123;BME280;2075;51.062;6.920;2023-09-07T03:09:11;-11667.00;;;-144.48;100.00
4123;BME280;2075;51.062;6.920;2023-09-07T03:11:58;-11667.00;;;-144.48;100.00
4123;BME280;2075;51.062;6.920;2023-09-07T03:14:44;-11667.00;;;-144.48;100.00
4123;BME280;2075;51.062;6.920;2023-09-07T03:17:30;-11667.00;;;-144.48;100.00
4123;BME280;2075;51.062;6.920;2023-09-07T03:20:17;-11667.00;;;-144.48;100.00
4123;BME280;2075;51.062;6.920;2023-09-07T03:23:07;-11667.00;;;-144.48;100.00
4123;BME280;2075;51.062;6.920;2023-09-07T03:25:54;-11667.00;;;-144.48;100.00
4123;BME280;2075;51.062;6.920;2023-09-07T03:28:41;-11667.00;;;-144.48;100.00
4123;BME280;2075;51.062;6.920;2023-09-07T03:31:28;-11667.00;;;-144.48;100.00
4123;BME280;2075;51.062;6.920;2023-09-07T03:34:14;-11667.00;;;-144.48;100.00
4123;BME280;2075;51.062;6.920;2023-09-07T03:37:01;-11667.00;;;-144.48;100.00
4123;BME280;2075;51.062;6.920;2023-09-07T03:39:50;-11667.00;;;-144.48;100.00
4123;BME280;2075;51.062;6.920;2023-09-07T03:42:36;-11667.00;;;-144.48;100.00
4123;BME280;2075;51.062;6.920;2023-09-07T03:45:22;-11667.00;;;-144.48;100.00
4123;BME280;2075;51.062;6.920;2023-09-07T03:48:07;-11667.00;;;-144.48;100.00
4123;BME280;2075;51.062;6.920;2023-09-07T03:50:54;-11667.00;;;-144.48;100.00
4123;BME280;2075;51.062;6.920;2023-09-07T03:53:42;-11667.00;;;-144.48;100.00
4123;BME280;2075;51.062;6.920;2023-09-07T03:56:28;-11667.00;;;-144.48;100.00
4123;BME280;2075;51.062;6.920;2023-09-07T03:59:13;-11667.00;;;-144.48;100.00
4123;BME280;2075;51.062;6.920;2023-09-07T04:01:59;-11667.00;;;-144.48;100.00
4123;BME280;2075;51.062;6.920;2023-09-07T04:04:48;-11667.00;;;-144.48;100.00
4123;BME280;2075;51.062;6.920;2023-09-07T04:07:36;-11667.00;;;-144.48;100.00
4123;BME280;2075;51.062;6.920;2023-09-07T04:10:23;-11667.00;;;-144.48;100.00
4123;BME280;2075;51.062;6.920;2023-09-07T04:13:08;-11667.00;;;-144.48;100.00
4123;BME280;2075;51.062;6.920;2023-09-07T04:15:55;-11667.00;;;-144.48;100.00
4123;BME280;2075;51.062;6.920;2023-09-07T04:18:40;-11667.00;;;-144.48;100.00
4123;BME280;2075;51.062;6.920;2023-09-07T04:21:27;-11667.00;;;-144.48;100.00
4123;BME280;2075;51.062;6.920;2023-09-07T04:24:12;-11667.00;;;-144.48;100.00
4123;BME280;2075;51.062;6.920;2023-09-07T04:27:00;-11667.00;;;-144.48;100.00
4123;BME280;2075;51.062;6.920;2023-09-07T04:29:45;-11667.00;;;-144.48;100.00
4123;BME280;2075;51.062;6.920;2023-09-07T04:32:31;-11667.00;;;-144.48;100.00
4123;BME280;2075;51.062;6.920;2023-09-07T04:35:16;-11667.00;;;-144.48;100.00
4123;BME280;2075;51.062;6.920;2023-09-07T04:38:02;-11667.00;;;-144.48;100.00
4123;BME280;2075;51.062;6.920;2023-09-07T04:40:48;-11667.00;;;-144.48;100.00
4123;BME280;2075;51.062;6.920;2023-09-07T04:43:35;-11667.00;;;-144.48;100.00
4123;BME280;2075;51.062;6.920;2023-09-07T04:46:22;-11667.00;;;-144.48;100.00
4123;BME280;2075;51.062;6.920;2023-09-07T04:49:08;-11667.00;;;-144.48;100.00
4123;BME280;2075;51.062;6.920;2023-09-07T04:51:53;-11667.00;;;-144.48;100.00
4123;BME280;2075;51.062;6.920;2023-09-07T04:54:39;-11667.00;;;-144.48;100.00
4123;BME280;2075;51.062;6.920;2023-09-07T04:57:25;-11667.00;;;-144.48;100.00
4123;BME280;2075;51.062;6.920;2023-09-07T05:00:13;-11667.00;;;-144.48;100.00
4123;BME280;2075;51.062;6.920;2023-09-07T05:03:01;-11667.00;;;-144.48;100.00
4123;BME280;2075;51.062;6.920;2023-09-07T05:05:53;-11667.00;;;-144.48;100.00
4123;BME280;2075;51.062;6.920;2023-09-07T05:08:39;-11667.00;;;-144.48;100.00
4123;BME280;2075;51.062;6.920;2023-09-07T05:11:24;-11667.00;;;-144.48;100.00
4123;BME280;2075;51.062;6.920;2023-09-07T05:14:11;-11667.00;;;-144.48;100.00
4123;BME280;2075;51.062;6.920;2023-09-07T05:16:57;-11667.00;;;-144.48;100.00
4123;BME280;2075;51.062;6.920;2023-09-07T05:19:43;-11667.00;;;-144.48;100.00
4123;BME280;2075;51.062;6.920;2023-09-07T05:22:30;-11667.00;;;-144.48;100.00
4123;BME280;2075;51.062;6.920;2023-09-07T05:25:20;-11667.00;;;-144.48;100.00
4123;BME280;2075;51.062;6.920;2023-09-07T05:28:07;-11667.00;;;-144.48;100.00
4123;BME280;2075;51.062;6.920;2023-09-07T05:30:53;-11667.00;;;-144.48;100.00
4123;BME280;2075;51.062;6.920;2023-09-07T05:33:42;-11667.00;;;-144.48;100.00
4123;BME280;2075;51.062;6.920;2023-09-07T05:36:29;-11667.00;;;-144.48;100.00
4123;BME280;2075;51.062;6.920;2023-09-07T05:39:15;-11667.00;;;-144.48;100.00
4123;BME280;2075;51.062;6.920;2023-09-07T05:42:01;-11667.00;;;-144.48;100.00
4123;BME280;2075;51.062;6.920;2023-09-07T05:44:47;-11667.00;;;-144.48;100.00
4123;BME280;2075;51.062;6.920;2023-09-07T05:47:33;-11667.00;;;-144.48;100.00
4123;BME280;2075;51.062;6.920;2023-09-07T05:50:19;-11667.00;;;-144.48;100.00
4123;BME280;2075;51.062;6.920;2023-09-07T05:53:07;-10405.38;;;-144.48;100.00
4123;BME280;2075;51.062;6.920;2023-09-07T05:55:53;-3339.50;;;-144.48;100.00
4123;BME280;2075;51.062;6.920;2023-09-07T05:58:39;74513.56;;;-144.48;100.00
4123;BME280;2075;51.062;6.920;2023-09-07T06:01:24;91729.03;;;-144.48;65.86
4123;BME280;2075;51.062;6.920;2023-09-07T06:04:10;90750.63;;;-144.48;43.59
4123;BME280;2075;51.062;6.920;2023-09-07T06:06:59;90056.56;;;-144.48;36.42
4123;BME280;2075;51.062;6.920;2023-09-07T06:09:45;89490.47;;;-144.48;33.00
4123;BME280;2075;51.062;6.920;2023-09-07T06:12:31;89338.31;;;-144.48;31.27
4123;BME280;2075;51.062;6.920;2023-09-07T06:15:17;89040.09;;;-144.48;29.91
4123;BME280;2075;51.062;6.920;2023-09-07T06:18:03;88537.03;;;-144.48;29.10
4123;BME280;2075;51.062;6.920;2023-09-07T06:20:49;88238.88;;;-144.48;27.71
4123;BME280;2075;51.062;6.920;2023-09-07T06:23:37;87843.44;;;-144.48;27.31
4123;BME280;2075;51.062;6.920;2023-09-07T06:26:22;87583.88;;;-144.48;25.96
4123;BME280;2075;51.062;6.920;2023-09-07T06:29:11;87504.78;;;-144.48;25.88
4123;BME280;2075;51.062;6.920;2023-09-07T06:31:56;86827.59;;;-144.48;25.34
4123;BME280;2075;51.062;6.920;2023-09-07T06:34:44;86659.34;;;-144.48;24.73
4123;BME280;2075;51.062;6.920;2023-09-07T06:37:33;86947.22;;;-144.48;24.94
4123;BME280;2075;51.062;6.920;2023-09-07T06:40:28;87052.66;;;-144.48;25.10
4123;BME280;2075;51.062;6.920;2023-09-07T06:43:16;86963.44;;;-144.48;24.72
4123;BME280;2075;51.062;6.920;2023-09-07T06:46:05;86612.72;;;-144.48;24.37
4123;BME280;2075;51.062;6.920;2023-09-07T06:48:52;86124.22;;;-144.48;24.01
4123;BME280;2075;51.062;6.920;2023-09-07T06:51:47;86097.84;;;-144.48;23.94
4123;BME280;2075;51.062;6.920;2023-09-07T06:54:34;85966.13;;;-144.48;23.56
4123;BME280;2075;51.062;6.920;2023-09-07T06:57:22;86764.75;;;-144.48;24.19
4123;BME280;2075;51.062;6.920;2023-09-07T07:00:13;87050.63;;;-144.48;24.46
4123;BME280;2075;51.062;6.920;2023-09-07T07:02:59;86391.75;;;-144.48;24.04
4123;BME280;2075;51.062;6.920;2023-09-07T07:05:45;85666.16;;;-144.48;23.50
4123;BME280;2075;51.062;6.920;2023-09-07T07:08:32;85037.97;;;-144.48;23.30
4123;BME280;2075;51.062;6.920;2023-09-07T07:11:19;84270.09;;;-144.48;22.96
4123;BME280;2075;51.062;6.920;2023-09-07T07:14:06;84736.06;;;-144.48;23.02
4123;BME280;2075;51.062;6.920;2023-09-07T07:16:54;85244.66;;;-144.48;23.21
4123;BME280;2075;51.062;6.920;2023-09-07T07:19:41;85870.84;;;-144.48;23.58
4123;BME280;2075;51.062;6.920;2023-09-07T07:22:28;85139.28;;;-144.48;23.11
4123;BME280;2075;51.062;6.920;2023-09-07T07:25:14;84859.66;;;-144.48;23.02
4123;BME280;2075;51.062;6.920;2023-09-07T07:28:00;85574.97;;;-144.48;23.17
4123;BME280;2075;51.062;6.920;2023-09-07T07:30:51;86112.03;;;-144.48;23.73
4123;BME280;2075;51.062;6.920;2023-09-07T07:33:41;85633.75;;;-144.48;23.48
4123;BME280;2075;51.062;6.920;2023-09-07T07:36:27;84788.75;;;-144.48;22.81
4123;BME280;2075;51.062;6.920;2023-09-07T07:39:16;84122.22;;;-144.48;22.47
4123;BME280;2075;51.062;6.920;2023-09-07T07:42:10;84014.88;;;-144.48;22.67
4123;BME280;2075;51.062;6.920;2023-09-07T07:44:57;84320.75;;;-144.48;22.57
4123;BME280;2075;51.062;6.920;2023-09-07T07:47:46;84574.00;;;-144.48;22.73
4123;BME280;2075;51.062;6.920;2023-09-07T07:50:37;84276.19;;;-144.48;22.74
4123;BME280;2075;51.062;6.920;2023-09-07T07:53:24;85372.31;;;-144.48;23.10
4123;BME280;2075;51.062;6.920;2023-09-07T07:56:19;85585.09;;;-144.48;23.26
4123;BME280;2075;51.062;6.920;2023-09-07T07:59:08;85495.94;;;-144.48;23.11
4123;BME280;2075;51.062;6.920;2023-09-07T08:01:56;86760.72;;;-144.48;23.89
4123;BME280;2075;51.062;6.920;2023-09-07T08:04:43;87245.25;;;-144.48;24.44
4123;BME280;2075;51.062;6.920;2023-09-07T08:07:30;87636.59;;;-144.48;25.02
4123;BME280;2075;51.062;6.920;2023-09-07T08:10:19;88906.22;;;-144.48;27.16
4123;BME280;2075;51.062;6.920;2023-09-07T08:13:06;89015.75;;;-144.48;27.44
4123;BME280;2075;51.062;6.920;2023-09-07T08:15:52;89332.22;;;-144.48;28.05
4123;BME280;2075;51.062;6.920;2023-09-07T08:18:38;89194.28;;;-144.48;27.91
4123;BME280;2075;51.062;6.920;2023-09-07T08:21:28;89322.09;;;-144.48;28.10
4123;BME280;2075;51.062;6.920;2023-09-07T08:24:15;88918.38;;;-144.48;27.52
4123;BME280;2075;51.062;6.920;2023-09-07T08:27:04;89202.38;;;-144.48;28.29
4123;BME280;2075;51.062;6.920;2023-09-07T08:29:50;88100.97;;;-144.48;26.31
4123;BME280;2075;51.062;6.920;2023-09-07T08:32:39;88086.78;;;-144.48;25.95
4123;BME280;2075;51.062;6.920;2023-09-07T08:35:28;88291.63;;;-144.48;26.52
4123;BME280;2075;51.062;6.920;2023-09-07T08:38:16;87275.66;;;-144.48;25.44
4123;BME280;2075;51.062;6.920;2023-09-07T08:41:10;87660.94;;;-144.48;25.28
4123;BME280;2075;51.062;6.920;2023-09-07T08:43:57;87847.47;;;-144.48;25.68
4123;BME280;2075;51.062;6.920;2023-09-07T08:46:43;88139.50;;;-144.48;26.02
4123;BME280;2075;51.062;6.920;2023-09-07T08:49:29;90038.31;;;-144.48;31.31
4123;BME280;2075;51.062;6.920;2023-09-07T08:52:17;90921.13;;;-144.48;36.27
4123;BME280;2075;51.062;6.920;2023-09-07T08:55:06;91266.19;;;-144.48;40.93
4123;BME280;2075;51.062;6.920;2023-09-07T08:57:52;91540.22;;;-144.48;44.56
4123;BME280;2075;51.062;6.920;2023-09-07T09:00:38;91568.66;;;-144.48;47.13
4123;BME280;2075;51.062;6.920;2023-09-07T09:03:27;91653.91;;;-144.48;48.31
4123;BME280;2075;51.062;6.920;2023-09-07T09:06:17;91641.72;;;-144.48;49.48
4123;BME280;2075;51.062;6.920;2023-09-07T09:09:06;91684.34;;;-144.48;48.95
4123;BME280;2075;51.062;6.920;2023-09-07T09:11:57;91645.78;;;-144.48;49.98
4123;BME280;2075;51.062;6.920;2023-09-07T09:14:52;91627.50;;;-144.48;49.82
4123;BME280;2075;51.062;6.920;2023-09-07T09:17:39;91635.63;;;-144.48;49.51
4123;BME280;2075;51.062;6.920;2023-09-07T09:20:26;91688.41;;;-144.48;50.61
4123;BME280;2075;51.062;6.920;2023-09-07T09:23:12;91674.22;;;-144.48;50.54
4123;BME280;2075;51.062;6.920;2023-09-07T09:25:59;91706.69;;;-144.48;51.33
4123;BME280;2075;51.062;6.920;2023-09-07T09:28:50;91716.84;;;-144.48;52.32
4123;BME280;2075;51.062;6.920;2023-09-07T09:31:36;91690.44;;;-144.48;51.32
4123;BME280;2075;51.062;6.920;2023-09-07T09:34:23;91674.22;;;-144.48;50.18
4123;BME280;2075;51.062;6.920;2023-09-07T09:37:13;91698.56;;;-144.48;51.34
4123;BME280;2075;51.062;6.920;2023-09-07T09:40:04;91647.81;;;-144.48;50.79
4123;BME280;2075;51.062;6.920;2023-09-07T09:42:55;91696.53;;;-144.48;51.57
4123;BME280;2075;51.062;6.920;2023-09-07T09:45:42;91666.09;;;-144.48;50.31
4123;BME280;2075;51.062;6.920;2023-09-07T09:48:28;91629.53;;;-144.48;49.93
4123;BME280;2075;51.062;6.920;2023-09-07T09:51:19;91621.44;;;-144.48;49.24
4123;BME280;2075;51.062;6.920;2023-09-07T09:54:05;91623.47;;;-144.48;49.92
4123;BME280;2075;51.062;6.920;2023-09-07T09:56:52;91840.69;;;-144.48;48.40
4123;BME280;2075;51.062;6.920;2023-09-07T09:59:38;91560.53;;;-144.48;48.90
4123;BME280;2075;51.062;6.920;2023-09-07T10:02:26;91582.84;;;-144.48;48.77
4123;BME280;2075;51.062;6.920;2023-09-07T10:05:15;91564.59;;;-144.48;47.70
4123;BME280;2075;51.062;6.920;2023-09-07T10:08:03;91546.31;;;-144.48;47.50
4123;BME280;2075;51.062;6.920;2023-09-07T10:10:52;91521.94;;;-144.48;47.69
4123;BME280;2075;51.062;6.920;2023-09-07T10:13:41;91538.19;;;-144.48;47.06
4123;BME280;2075;51.062;6.920;2023-09-07T10:16:28;91536.16;;;-144.48;48.17
4123;BME280;2075;51.062;6.920;2023-09-07T10:19:16;91556.47;;;-144.48;47.26
4123;BME280;2075;51.062;6.920;2023-09-07T10:22:02;91473.22;;;-144.48;48.11
4123;BME280;2075;51.062;6.920;2023-09-07T10:24:57;91418.41;;;-144.48;47.61
4123;BME280;2075;51.062;6.920;2023-09-07T10:27:43;91487.44;;;-144.48;47.66
4123;BME280;2075;51.062;6.920;2023-09-07T10:30:32;91473.22;;;-144.48;47.22
4123;BME280;2075;51.062;6.920;2023-09-07T10:33:20;91434.66;;;-144.48;46.77
4123;BME280;2075;51.062;6.920;2023-09-07T10:36:08;91128.16;;;-144.48;46.79
4123;BME280;2075;51.062;6.920;2023-09-07T10:39:05;91446.84;;;-144.48;46.37
4123;BME280;2075;51.062;6.920;2023-09-07T10:41:52;91162.66;;;-144.48;46.45
4123;BME280;2075;51.062;6.920;2023-09-07T10:44:39;91467.16;;;-144.48;47.43
4123;BME280;2075;51.062;6.920;2023-09-07T10:47:24;91083.50;;;-144.48;46.82
4123;BME280;2075;51.062;6.920;2023-09-07T10:50:14;91430.59;;;-144.48;45.15
4123;BME280;2075;51.062;6.920;2023-09-07T10:53:04;91402.19;;;-144.48;46.16
4123;BME280;2075;51.062;6.920;2023-09-07T10:56:04;91396.09;;;-144.48;45.18
4123;BME280;2075;51.062;6.920;2023-09-07T10:58:53;91323.00;;;-144.48;44.49
4123;BME280;2075;51.062;6.920;2023-09-07T11:01:39;91392.03;;;-144.48;44.80
4123;BME280;2075;51.062;6.920;2023-09-07T11:04:25;91327.06;;;-144.48;45.30
4123;BME280;2075;51.062;6.920;2023-09-07T11:07:10;91387.97;;;-144.48;44.75
4123;BME280;2075;51.062;6.920;2023-09-07T11:09:58;91357.53;;;-144.48;44.98
4123;BME280;2075;51.062;6.920;2023-09-07T11:12:46;91373.75;;;-144.48;44.15
4123;BME280;2075;51.062;6.920;2023-09-07T11:15:32;91377.81;;;-144.48;44.98
4123;BME280;2075;51.062;6.920;2023-09-07T11:18:26;91357.53;;;-144.48;44.79
4123;BME280;2075;51.062;6.920;2023-09-07T11:21:13;91353.47;;;-144.48;44.62
4123;BME280;2075;51.062;6.920;2023-09-07T11:24:00;91292.56;;;-144.48;44.06
4123;BME280;2075;51.062;6.920;2023-09-07T11:26:50;91357.53;;;-144.48;44.24
4123;BME280;2075;51.062;6.920;2023-09-07T11:29:36;91316.94;;;-144.48;43.13
4123;BME280;2075;51.062;6.920;2023-09-07T11:32:23;91292.56;;;-144.48;43.79
4123;BME280;2075;51.062;6.920;2023-09-07T11:35:10;91294.59;;;-144.48;44.32
4123;BME280;2075;51.062;6.920;2023-09-07T11:37:55;91337.22;;;-144.48;44.08
4123;BME280;2075;51.062;6.920;2023-09-07T11:40:41;91276.31;;;-144.48;43.70
4123;BME280;2075;51.062;6.920;2023-09-07T11:43:30;91093.63;;;-144.48;43.24
4123;BME280;2075;51.062;6.920;2023-09-07T11:46:18;91258.06;;;-144.48;43.07
4123;BME280;2075;51.062;6.920;2023-09-07T11:49:03;91245.88;;;-144.48;43.11
4123;BME280;2075;51.062;6.920;2023-09-07T11:51:50;91215.44;;;-144.48;41.30
4123;BME280;2075;51.062;6.920;2023-09-07T11:54:36;91223.56;;;-144.48;41.75
4123;BME280;2075;51.062;6.920;2023-09-07T11:57:22;91239.78;;;-144.48;41.87
4123;BME280;2075;51.062;6.920;2023-09-07T12:00:11;91231.66;;;-144.48;42.19
4123;BME280;2075;51.062;6.920;2023-09-07T12:02:59;91187.00;;;-144.48;40.98
4123;BME280;2075;51.062;6.920;2023-09-07T12:05:45;91164.69;;;-144.48;41.71
4123;BME280;2075;51.062;6.920;2023-09-07T12:08:31;91404.22;;;-144.48;42.10
4123;BME280;2075;51.062;6.920;2023-09-07T12:11:17;91136.25;;;-144.48;41.88
4123;BME280;2075;51.062;6.920;2023-09-07T12:14:03;91124.09;;;-144.48;41.99
4123;BME280;2075;51.062;6.920;2023-09-07T12:16:51;91172.81;;;-144.48;41.14
4123;BME280;2075;51.062;6.920;2023-09-07T12:19:42;91146.41;;;-144.48;41.20
4123;BME280;2075;51.062;6.920;2023-09-07T12:22:31;91231.66;;;-144.48;40.45
4123;BME280;2075;51.062;6.920;2023-09-07T12:25:18;91154.53;;;-144.48;40.95
4123;BME280;2075;51.062;6.920;2023-09-07T12:28:07;91170.78;;;-144.48;40.47
4123;BME280;2075;51.062;6.920;2023-09-07T12:30:54;91187.00;;;-144.48;40.26
4123;BME280;2075;51.062;6.920;2023-09-07T12:33:44;91201.22;;;-144.48;39.68
4123;BME280;2075;51.062;6.920;2023-09-07T12:36:30;91207.31;;;-144.48;39.21
4123;BME280;2075;51.062;6.920;2023-09-07T12:39:16;91184.97;;;-144.48;39.41
4123;BME280;2075;51.062;6.920;2023-09-07T12:42:05;91156.56;;;-144.48;38.85
4123;BME280;2075;51.062;6.920;2023-09-07T12:44:51;91144.38;;;-144.48;38.98
4123;BME280;2075;51.062;6.920;2023-09-07T12:47:37;91156.56;;;-144.48;38.55
4123;BME280;2075;51.062;6.920;2023-09-07T12:50:25;91132.22;;;-144.48;39.21
4123;BME280;2075;51.062;6.920;2023-09-07T12:53:12;91115.97;;;-144.48;38.81
4123;BME280;2075;51.062;6.920;2023-09-07T12:55:58;91136.25;;;-144.48;38.03
4123;BME280;2075;51.062;6.920;2023-09-07T12:58:45;91406.25;;;-144.48;38.17
4123;BME280;2075;51.062;6.920;2023-09-07T13:01:31;91097.69;;;-144.48;37.87
4123;BME280;2075;51.062;6.920;2023-09-07T13:04:19;91042.91;;;-144.48;37.58
4123;BME280;2075;51.062;6.920;2023-09-07T13:07:07;91053.03;;;-144.48;37.90
4123;BME280;2075;51.062;6.920;2023-09-07T13:09:54;91081.47;;;-144.48;38.20
4123;BME280;2075;51.062;6.920;2023-09-07T13:12:41;91079.44;;;-144.48;37.76
4123;BME280;2075;51.062;6.920;2023-09-07T13:15:36;91115.97;;;-144.48;39.03
4123;BME280;2075;51.062;6.920;2023-09-07T13:18:30;91073.34;;;-144.48;38.63
4123;BME280;2075;51.062;6.920;2023-09-07T13:21:16;91081.47;;;-144.48;38.72
4123;BME280;2075;51.062;6.920;2023-09-07T13:24:09;91061.16;;;-144.48;38.26
4123;BME280;2075;51.062;6.920;2023-09-07T13:26:55;91097.69;;;-144.48;37.95
4123;BME280;2075;51.062;6.920;2023-09-07T13:29:46;91101.75;;;-144.48;37.54
4123;BME280;2075;51.062;6.920;2023-09-07T13:32:32;91093.63;;;-144.48;37.46
4123;BME280;2075;51.062;6.920;2023-09-07T13:35:18;91077.41;;;-144.48;37.07
4123;BME280;2075;51.062;6.920;2023-09-07T13:38:04;91046.94;;;-144.48;36.15
4123;BME280;2075;51.062;6.920;2023-09-07T13:40:54;91048.97;;;-144.48;35.94
4123;BME280;2075;51.062;6.920;2023-09-07T13:43:40;91065.22;;;-144.48;36.31
4123;BME280;2075;51.062;6.920;2023-09-07T13:46:26;90986.06;;;-144.48;36.08
4123;BME280;2075;51.062;6.920;2023-09-07T13:49:12;91034.78;;;-144.48;36.18
4123;BME280;2075;51.062;6.920;2023-09-07T13:52:00;91014.47;;;-144.48;36.58
4123;BME280;2075;51.062;6.920;2023-09-07T13:54:47;90965.75;;;-144.48;36.41
4123;BME280;2075;51.062;6.920;2023-09-07T13:57:34;90994.19;;;-144.48;36.03
4123;BME280;2075;51.062;6.920;2023-09-07T14:00:19;91044.94;;;-144.48;35.70
4123;BME280;2075;51.062;6.920;2023-09-07T14:03:05;91048.97;;;-144.48;35.98
4123;BME280;2075;51.062;6.920;2023-09-07T14:05:52;91020.56;;;-144.48;36.13
4123;BME280;2075;51.062;6.920;2023-09-07T14:08:38;91044.94;;;-144.48;36.65
4123;BME280;2075;51.062;6.920;2023-09-07T14:11:29;91067.25;;;-144.48;36.55
4123;BME280;2075;51.062;6.920;2023-09-07T14:14:20;91014.47;;;-144.48;37.00
4123;BME280;2075;51.062;6.920;2023-09-07T14:17:07;91032.75;;;-144.48;36.35
4123;BME280;2075;51.062;6.920;2023-09-07T14:19:54;91000.28;;;-144.48;36.30
4123;BME280;2075;51.062;6.920;2023-09-07T14:22:40;90988.09;;;-144.48;34.16
4123;BME280;2075;51.062;6.920;2023-09-07T14:25:26;90996.22;;;-144.48;33.59
4123;BME280;2075;51.062;6.920;2023-09-07T14:28:14;90939.38;;;-144.48;34.21
4123;BME280;2075;51.062;6.920;2023-09-07T14:31:03;91014.47;;;-144.48;33.98
4123;BME280;2075;51.062;6.920;2023-09-07T14:33:53;90969.81;;;-144.48;34.34
4123;BME280;2075;51.062;6.920;2023-09-07T14:36:39;90982.00;;;-144.48;34.88